Time;durP1;ratioP1;P1;durP2;ratioP2;P2;SDS_P1;SDS_P2;PMS_P1;PMS_P2;Temp;Humidity;BMP_temperature;BMP_pressure;BME280_temperature;BME280_humidity;BME280_pressure;Samples;Min_cycle;Max_cycle;Signal;HPM_P1;HPM_P2
2023/03/04 14:25:41;;;;;;;402.60;346.50;;;12.40;67.60;;;10.89;52.89;101311.97;5085045;27;20573;-62
2023/03/04 14:28:15;;;;;;;445.50;388.33;;;12.00;70.10;;;10.66;53.52;101315.03;5065687;28;20201;-61
2023/03/04 14:33:21;;;;;;;370.77;329.83;;;11.30;79.10;;;10.08;59.20;101319.66;5073488;27;20589;-54
2023/03/04 15:18:25;;;;;;;614.43;487.80;;;7.40;99.00;;;12.96;60.66;101269.22;5078458;27;21139;-72
2023/03/04 15:20:59;;;;;;;527.60;429.47;;;11.80;95.90;;;14.25;55.47;101273.88;5002155;28;62112;-62
2023/03/04 15:27:16;;;;;;;11.27;3.43;;;16.00;65.80;;;11.53;47.62;101272.47;5132628;27;20551;-70
2023/03/04 15:29:48;;;;;;;9.97;3.50;;;12.90;58.70;;;9.11;54.94;101283.16;5111124;28;20750;-69
2023/03/04 15:32:20;;;;;;;11.07;3.03;;;10.70;68.20;;;7.11;62.38;101288.94;5111424;28;20192;-69
2023/03/04 15:34:54;;;;;;;11.97;3.30;;;8.70;81.30;;;6.41;66.40;101275.09;5090739;28;20232;-70
2023/03/04 15:37:29;;;;;;;10.23;3.20;;;7.80;88.80;;;6.01;68.14;101272.91;5090973;28;20193;-70
2023/03/04 15:42:43;;;;;;;16.13;3.23;;;7.10;92.40;;;6.20;66.55;101272.31;5109713;27;20558;-75
2023/03/04 15:45:23;;;;;;;11.43;2.90;;;6.70;92.60;;;5.71;69.38;101261.94;5089879;28;20246;-75
2023/03/04 15:47:51;;;;;;;11.30;3.27;;;6.40;94.00;;;5.51;70.68;101274.03;5080928;28;20211;-75
2023/03/04 15:50:22;;;;;;;14.00;3.47;;;6.20;94.90;;;5.34;69.86;101270.97;5080974;28;20555;-75
2023/03/04 15:52:51;;;;;;;20.13;3.93;;;6.10;94.40;;;5.15;70.82;101268.81;5052385;28;20190;-75
2023/03/04 15:55:21;;;;;;;10.20;3.30;;;6.00;94.90;;;5.08;71.58;101265.78;5048371;28;20233;-75
2023/03/04 15:57:56;;;;;;;20.47;3.90;;;6.00;95.20;;;5.11;70.81;101275.31;5061425;28;20216;-75
2023/03/04 16:00:25;;;;;;;12.97;3.60;;;6.00;95.20;;;5.01;72.13;101280.44;5065632;28;20220;-75
2023/03/04 16:02:53;;;;;;;19.60;4.40;;;5.90;95.70;;;5.04;72.40;101272.25;5066277;28;20224;-75
2023/03/04 16:05:21;;;;;;;15.63;3.40;;;5.90;95.80;;;5.05;72.09;101281.06;5066015;28;20233;-75
2023/03/04 16:07:52;;;;;;;14.67;3.67;;;5.90;95.70;;;5.07;70.83;101277.34;5064921;28;20240;-75
2023/03/04 16:10:25;;;;;;;20.43;4.13;;;5.90;95.30;;;5.05;71.29;101281.06;5065367;28;20297;-75
2023/03/04 16:12:55;;;;;;;19.33;4.03;;;5.90;95.10;;;4.91;71.77;101287.38;5065606;28;20213;-75
2023/03/04 16:15:27;;;;;;;19.87;3.80;;;5.80;95.10;;;4.98;71.12;101285.97;5065444;28;20225;-75
2023/03/04 16:17:56;;;;;;;18.17;3.77;;;5.90;95.00;;;4.96;72.43;101287.06;5065503;28;20241;-75
2023/03/04 16:20:29;;;;;;;19.67;4.63;;;5.80;95.60;;;4.90;71.74;101280.38;5065125;28;20197;-75
2023/03/04 16:23:00;;;;;;;21.13;3.87;;;5.80;95.30;;;4.88;71.97;101290.25;5065349;28;20564;-75
2023/03/04 16:25:30;;;;;;;17.93;4.27;;;5.70;95.30;;;4.82;71.87;101277.44;5065221;28;20232;-75
2023/03/04 16:28:01;;;;;;;13.60;3.43;;;5.70;95.60;;;4.81;72.61;101282.84;5065409;28;20661;-75
2023/03/04 16:30:31;;;;;;;17.83;4.73;;;5.70;95.90;;;4.82;72.05;101284.53;5064918;28;20186;-75
2023/03/04 16:32:59;;;;;;;16.57;3.80;;;5.70;95.90;;;4.85;71.49;101292.28;5064706;28;20197;-75
2023/03/04 16:35:28;;;;;;;15.40;3.13;;;5.70;95.70;;;4.90;70.95;101290.97;5065042;28;20233;-75
2023/03/04 16:37:57;;;;;;;16.47;3.43;;;5.70;95.10;;;4.92;69.16;101286.44;5063761;28;20206;-75
2023/03/04 16:40:29;;;;;;;17.00;3.30;;;5.80;94.10;;;4.74;69.97;101286.88;5065199;28;20557;-75
2023/03/04 16:42:59;;;;;;;9.43;3.13;;;5.60;93.90;;;4.77;69.90;101278.69;5065069;28;20225;-75
2023/03/04 16:45:29;;;;;;;11.67;3.43;;;5.60;94.10;;;4.69;69.36;101289.03;5064289;28;20247;-75
2023/03/04 16:47:57;;;;;;;8.80;2.97;;;5.60;94.10;;;4.68;68.66;101287.34;5064637;28;20196;-75
2023/03/04 16:50:29;;;;;;;12.20;3.60;;;5.60;93.70;;;4.64;69.71;101297.31;5063929;28;20221;-75
2023/03/04 16:52:57;;;;;;;12.37;3.43;;;5.50;93.90;;;4.58;70.03;101290.66;5043111;28;20222;-75
2023/03/04 16:55:28;;;;;;;9.73;2.80;;;5.50;94.10;;;4.57;68.92;101283.63;5032152;28;20226;-74
2023/03/04 16:57:57;;;;;;;10.47;2.80;;;5.50;93.50;;;4.52;68.90;101290.25;5042882;28;20202;-75
2023/03/04 17:00:28;;;;;;;11.13;2.50;;;5.40;93.30;;;4.50;68.41;101290.34;5050886;28;20216;-75
2023/03/04 17:02:59;;;;;;;13.37;2.93;;;5.40;93.40;;;4.37;68.54;101284.19;5050989;28;20225;-73
2023/03/04 17:05:32;;;;;;;12.43;3.80;;;5.30;93.50;;;4.42;69.09;101287.34;5050868;28;20617;-75
2023/03/04 17:08:00;;;;;;;11.27;3.37;;;5.30;93.90;;;4.38;69.35;101279.75;5049777;28;20194;-75
2023/03/04 17:10:28;;;;;;;10.00;3.07;;;5.30;93.80;;;4.39;69.43;101282.28;5051442;28;20217;-75
2023/03/04 17:12:56;;;;;;;9.93;2.83;;;5.30;94.10;;;4.34;69.33;101279.13;5051042;28;20201;-75
2023/03/04 17:15:30;;;;;;;10.60;2.90;;;5.20;94.20;;;4.28;70.03;101290.13;5067826;23;20238;-72
2023/03/04 17:18:02;;;;;;;9.03;2.50;;;5.20;94.40;;;4.34;70.31;101289.72;5055905;28;20186;-72
2023/03/04 17:20:34;;;;;;;10.20;2.93;;;5.20;94.20;;;4.35;70.17;101295.88;5055799;28;20190;-72
2023/03/04 17:23:06;;;;;;;13.00;2.93;;;5.30;94.30;;;4.35;70.47;101291.38;5055610;28;20240;-72
2023/03/04 17:25:37;;;;;;;15.80;3.27;;;5.20;94.70;;;4.27;69.79;101287.59;5055642;28;20209;-72
2023/03/04 17:28:09;;;;;;;14.33;3.23;;;5.20;94.10;;;4.24;70.94;101283.38;5055676;28;20241;-72
2023/03/04 17:30:42;;;;;;;14.10;3.33;;;5.20;94.60;;;4.24;70.90;101291.31;5056216;28;20191;-72
2023/03/04 17:33:14;;;;;;;15.10;3.20;;;5.10;94.80;;;4.24;70.88;101293.97;5055412;28;20230;-72
2023/03/04 17:35:47;;;;;;;9.97;2.87;;;5.10;94.60;;;4.18;70.46;101293.53;5055201;28;20642;-72
2023/03/04 17:38:19;;;;;;;13.67;2.80;;;5.10;94.60;;;4.20;70.49;101292.47;5055523;28;20281;-72
2023/03/04 17:40:51;;;;;;;10.87;2.83;;;5.10;94.80;;;4.14;71.71;101294.72;5055447;28;20197;-69
2023/03/04 17:43:23;;;;;;;20.60;3.60;;;5.10;94.90;;;4.09;70.84;101302.97;5055220;28;20230;-70
2023/03/04 17:46:09;;;;;;;11.03;3.27;;;5.00;95.40;;;4.13;70.86;101303.59;5055450;28;20194;-69
2023/03/04 17:48:41;;;;;;;13.17;2.70;;;5.00;95.00;;;4.04;71.40;101297.16;5055295;28;20201;-71
2023/03/04 17:51:13;;;;;;;17.20;3.83;;;5.00;95.00;;;4.13;71.59;101303.59;5055236;28;20259;-72
2023/03/04 17:53:45;;;;;;;14.03;3.03;;;5.00;95.10;;;4.08;71.15;101298.59;5055066;28;20230;-72
2023/03/04 17:56:17;;;;;;;16.43;3.73;;;5.00;95.00;;;4.08;71.61;101303.91;5054823;28;20564;-72
2023/03/04 17:58:52;;;;;;;12.73;2.90;;;5.00;95.40;;;3.99;72.04;101294.81;5055156;28;20190;-72
2023/03/04 18:01:25;;;;;;;9.90;2.80;;;4.90;95.50;;;4.05;71.72;101304.13;5055017;28;20197;-72
2023/03/04 18:03:57;;;;;;;12.00;2.90;;;4.90;95.30;;;3.94;71.73;101301.34;5054348;28;20222;-72
2023/03/04 18:06:29;;;;;;;12.80;3.20;;;4.80;95.40;;;3.94;72.83;101301.34;5054636;28;20197;-71
2023/03/04 18:09:01;;;;;;;11.97;3.00;;;4.90;95.70;;;3.91;72.26;101297.13;5054746;28;20197;-72
2023/03/04 18:11:36;;;;;;;10.10;2.93;;;4.80;95.40;;;3.89;71.41;101295.53;5054509;28;20674;-72
2023/03/04 18:14:11;;;;;;;7.77;2.30;;;4.80;95.50;;;3.92;71.32;101295.31;5053546;28;20225;-72
2023/03/04 18:16:44;;;;;;;12.57;2.50;;;4.80;95.20;;;3.95;70.95;101303.06;5054454;28;20200;-71
2023/03/04 18:19:16;;;;;;;9.10;3.10;;;4.80;95.10;;;3.95;71.24;101301.25;5054693;28;20200;-72
2023/03/04 18:21:49;;;;;;;10.90;2.90;;;4.80;95.00;;;3.87;71.67;101306.22;5054531;28;20199;-72
2023/03/04 18:24:21;;;;;;;9.27;2.90;;;4.80;95.30;;;3.93;71.34;101300.53;5054209;28;20630;-72
2023/03/04 18:26:53;;;;;;;11.90;2.90;;;4.80;94.90;;;3.76;71.27;101298.16;5054536;28;20198;-72
2023/03/04 18:29:26;;;;;;;7.57;2.47;;;4.70;95.10;;;3.77;72.32;101296.34;5054126;28;20573;-72
2023/03/04 18:31:59;;;;;;;10.33;3.10;;;4.70;95.40;;;3.84;71.38;101292.31;5054929;28;20186;-72
2023/03/04 18:34:31;;;;;;;13.40;2.80;;;4.70;95.30;;;3.76;71.93;101289.38;5054306;28;20230;-72
2023/03/04 18:37:03;;;;;;;12.83;3.50;;;4.70;95.50;;;3.77;71.88;101289.25;5054306;28;20186;-72
2023/03/04 18:39:35;;;;;;;9.80;3.17;;;4.70;95.60;;;3.74;71.83;101289.47;5054282;28;20213;-72
2023/03/04 18:42:07;;;;;;;15.77;3.53;;;4.70;95.50;;;3.81;71.78;101287.25;5054180;28;20194;-72
2023/03/04 18:44:39;;;;;;;10.80;3.13;;;4.70;95.50;;;3.80;72.26;101293.50;5053826;28;20229;-72
2023/03/04 18:47:12;;;;;;;10.90;3.33;;;4.70;95.70;;;3.70;71.35;101298.56;5054210;28;20186;-72
2023/03/04 18:49:46;;;;;;;12.07;2.80;;;4.70;95.40;;;3.68;72.70;101299.63;5054210;28;20191;-72
2023/03/04 18:52:18;;;;;;;16.40;2.80;;;4.60;95.80;;;3.66;72.38;101301.53;5054111;28;20206;-72
2023/03/04 18:54:50;;;;;;;14.83;2.93;;;4.60;95.80;;;3.68;72.12;101297.81;5053975;28;20233;-72
2023/03/04 18:57:22;;;;;;;11.77;2.90;;;4.60;96.00;;;3.60;72.60;101297.47;5053996;28;20194;-72
2023/03/04 18:59:59;;;;;;;10.20;2.73;;;4.50;95.70;;;3.62;72.58;101307.97;5054072;28;20195;-72
2023/03/04 19:02:41;;;;;;;12.17;2.77;;;4.60;95.80;;;3.65;72.76;101299.81;5053761;28;20213;-72
2023/03/04 19:05:19;;;;;;;16.37;3.87;;;4.60;95.90;;;3.62;72.17;101295.59;5053934;28;20187;-72
2023/03/04 19:07:51;;;;;;;14.57;3.13;;;4.60;95.80;;;3.56;72.46;101296.84;5053541;28;20563;-72
2023/03/04 19:10:24;;;;;;;12.17;2.90;;;4.60;95.90;;;3.64;72.39;101303.41;5053847;28;20202;-72
2023/03/04 19:12:58;;;;;;;14.33;3.10;;;4.60;95.90;;;3.68;72.88;101295.19;5054404;28;20232;-72
2023/03/04 19:15:30;;;;;;;10.83;3.43;;;4.60;96.40;;;3.68;72.63;101299.63;5053079;28;20640;-72
2023/03/04 19:18:04;;;;;;;19.23;3.27;;;4.60;96.10;;;3.60;73.62;101307.25;5053339;28;20538;-72
2023/03/04 19:20:36;;;;;;;13.70;3.27;;;4.50;96.30;;;3.64;73.12;101308.72;5053641;28;20195;-72
2023/03/04 19:23:08;;;;;;;11.23;3.57;;;4.60;96.40;;;3.62;73.84;101300.88;5053128;28;20602;-72
2023/03/04 19:25:41;;;;;;;11.97;3.07;;;4.50;96.50;;;3.65;73.35;101295.38;5053861;28;20181;-72
2023/03/04 19:28:13;;;;;;;11.13;2.90;;;4.60;96.30;;;3.62;71.88;101300.88;5053546;28;20187;-72
2023/03/04 19:30:45;;;;;;;11.70;3.10;;;4.60;95.30;;;3.55;71.53;101295.16;5053536;28;20240;-72
2023/03/04 19:33:18;;;;;;;9.57;2.83;;;4.50;95.30;;;3.60;72.05;101299.31;5053397;28;20229;-72
2023/03/04 19:35:50;;;;;;;11.37;2.87;;;4.50;95.50;;;3.61;71.55;101308.91;5053453;28;20194;-72
2023/03/04 19:38:22;;;;;;;10.83;3.30;;;4.50;95.20;;;3.57;72.09;101295.88;5053444;28;20290;-72
2023/03/04 19:40:54;;;;;;;12.00;3.13;;;4.50;95.40;;;3.52;72.29;101295.38;5053383;28;20195;-72
2023/03/04 19:43:26;;;;;;;12.53;3.30;;;4.50;95.40;;;3.47;70.86;101291.31;5053222;28;20233;-72
2023/03/04 19:45:58;;;;;;;13.40;3.03;;;4.40;95.10;;;3.50;71.04;101291.94;5053302;28;20213;-72
2023/03/04 19:48:31;;;;;;;10.87;2.83;;;4.40;94.90;;;3.45;71.85;101298.50;5053409;28;20194;-72
2023/03/04 19:51:04;;;;;;;11.77;3.13;;;4.40;95.00;;;3.47;70.81;101301.88;5053280;28;20209;-72
2023/03/04 19:53:37;;;;;;;11.80;3.00;;;4.40;94.90;;;3.37;70.81;101298.16;5053674;28;20272;-71
2023/03/04 19:56:09;;;;;;;13.00;3.20;;;4.30;94.90;;;3.41;71.11;101297.00;5053227;28;20194;-71
2023/03/04 19:58:41;;;;;;;10.67;3.07;;;4.30;94.90;;;3.33;71.56;101308.09;5053219;28;20194;-71
2023/03/04 20:01:26;;;;;;;13.90;2.90;;;4.30;95.00;;;3.38;71.00;101298.06;5053193;28;20224;-71
2023/03/04 20:04:05;;;;;;;11.83;3.63;;;4.30;95.10;;;3.44;71.41;101302.09;5052701;28;20225;-71
2023/03/04 20:06:40;;;;;;;10.20;2.80;;;4.40;95.10;;;3.44;72.11;101302.09;5053181;28;20281;-71
2023/03/04 20:09:14;;;;;;;12.67;3.87;;;4.40;95.50;;;3.34;72.16;101311.59;5053167;28;20187;-71
2023/03/04 20:11:46;;;;;;;13.43;3.10;;;4.30;95.60;;;3.31;72.94;101317.94;5053755;28;20538;-71
2023/03/04 20:14:30;;;;;;;13.90;3.60;;;4.20;95.90;;;3.34;71.97;101317.75;5052971;28;20230;-71
2023/03/04 20:17:05;;;;;;;12.40;3.17;;;4.30;96.00;;;3.37;72.62;101312.25;5052747;28;20570;-71
2023/03/04 20:19:40;;;;;;;15.57;3.07;;;4.30;96.00;;;3.29;72.91;101314.53;5053092;28;20190;-71
2023/03/04 20:22:12;;;;;;;12.63;3.33;;;4.20;96.10;;;3.26;73.32;101304.16;5053020;28;20276;-71
2023/03/04 20:24:44;;;;;;;10.20;3.10;;;4.20;96.30;;;3.32;73.08;101309.03;5052884;28;20230;-71
2023/03/04 20:27:17;;;;;;;12.07;3.33;;;4.30;96.30;;;3.27;73.84;101308.50;5053006;28;20202;-71
2023/03/04 20:29:49;;;;;;;11.70;3.40;;;4.20;96.50;;;3.19;74.16;101313.44;5056749;28;20275;-71
2023/03/04 20:32:21;;;;;;;12.67;3.43;;;4.20;96.60;;;3.19;74.34;101313.44;5057311;28;20195;-71
2023/03/04 20:34:56;;;;;;;15.13;3.73;;;4.10;96.70;;;3.23;73.61;101309.66;5056722;28;20191;-71
2023/03/04 20:37:27;;;;;;;12.10;3.37;;;4.20;96.70;;;3.24;73.60;101306.06;5056674;28;20288;-71
2023/03/04 20:39:59;;;;;;;10.50;3.10;;;4.20;96.70;;;3.26;74.16;101309.44;5056277;28;20662;-71
2023/03/04 20:42:31;;;;;;;12.10;2.90;;;4.20;96.70;;;3.22;74.31;101317.69;5056161;28;20197;-71
2023/03/04 20:45:03;;;;;;;13.17;3.60;;;4.20;96.80;;;3.02;75.41;101316.31;5056120;28;20610;-71
2023/03/04 20:47:35;;;;;;;14.77;3.77;;;4.00;97.20;;;3.04;75.90;101314.44;5056487;28;20205;-71
2023/03/04 20:50:12;;;;;;;20.93;4.53;;;4.00;97.50;;;2.97;75.85;101311.34;5056409;28;20186;-71
2023/03/04 20:52:44;;;;;;;17.50;3.90;;;4.00;97.70;;;2.94;76.34;101314.19;5056376;28;20191;-71
2023/03/04 20:55:16;;;;;;;13.93;3.97;;;3.90;98.00;;;2.93;77.26;101319.56;5056319;28;20187;-71
2023/03/04 20:57:48;;;;;;;20.07;4.67;;;4.00;98.50;;;3.06;77.25;101323.97;5056262;28;20190;-71
2023/03/04 21:00:21;;;;;;;12.40;4.73;;;4.00;98.60;;;3.04;77.87;101319.72;5056237;28;20201;-71
2023/03/04 21:02:53;;;;;;;19.63;5.40;;;4.00;98.70;;;2.99;77.81;101327.94;5056104;28;20229;-71
2023/03/04 21:05:26;;;;;;;16.57;5.20;;;4.00;98.90;;;3.00;77.49;101323.50;5056160;28;20206;-71
2023/03/04 21:07:58;;;;;;;13.20;4.73;;;4.00;98.90;;;3.06;77.79;101308.09;5056222;28;20201;-71
2023/03/04 21:10:30;;;;;;;15.53;4.30;;;4.00;99.00;;;2.97;77.46;101307.84;5056201;28;20190;-71
2023/03/04 21:13:02;;;;;;;15.37;4.73;;;3.90;98.70;;;3.02;77.19;101300.44;5055693;28;20229;-71
2023/03/04 21:15:34;;;;;;;19.17;5.00;;;4.00;98.70;;;2.87;77.55;101297.00;5055900;28;20228;-71
2023/03/04 21:18:06;;;;;;;14.30;4.63;;;3.90;98.70;;;2.95;77.80;101296.50;5056182;28;20197;-71
2023/03/04 21:20:40;;;;;;;12.43;4.50;;;3.90;99.00;;;3.01;77.59;101296.13;5055902;28;20202;-71
2023/03/04 21:23:12;;;;;;;14.30;5.00;;;4.00;98.80;;;3.03;77.42;101291.56;5055707;28;20225;-71
2023/03/04 21:25:44;;;;;;;13.70;4.90;;;4.00;98.80;;;3.09;76.99;101293.81;5055730;28;20191;-71
2023/03/04 21:28:17;;;;;;;16.67;5.33;;;4.00;98.80;;;3.01;77.47;101304.06;5055416;28;20198;-71
2023/03/04 21:30:49;;;;;;;16.70;6.53;;;4.00;98.70;;;2.95;77.42;101301.78;5055621;28;20191;-71
2023/03/04 21:33:26;;;;;;;12.00;4.43;;;4.00;98.80;;;2.92;78.24;101299.34;5055250;28;20226;-71
2023/03/04 21:36:00;;;;;;;14.67;4.40;;;3.90;99.10;;;2.97;77.99;101292.81;5055584;28;20189;-71
2023/03/04 21:38:31;;;;;;;13.90;4.23;;;3.90;99.20;;;2.98;78.28;101294.50;5055177;28;20194;-71
2023/03/04 21:41:03;;;;;;;17.73;4.90;;;3.90;99.20;;;2.87;78.71;101280.28;5055115;28;20642;-71
2023/03/04 21:43:35;;;;;;;15.13;4.20;;;3.90;99.30;;;2.87;78.71;101290.84;5055295;28;20284;-71
2023/03/04 21:46:07;;;;;;;13.13;3.77;;;3.80;99.60;;;2.85;78.63;101284.81;5055324;28;20186;-71
2023/03/04 21:48:41;;;;;;;14.07;4.13;;;3.80;99.50;;;2.86;78.99;101289.16;5055370;28;20195;-71
2023/03/04 21:51:17;;;;;;;23.83;4.83;;;3.80;99.90;;;2.79;78.75;101298.41;5055280;28;20190;-71
2023/03/04 21:53:48;;;;;;;12.00;4.63;;;3.80;99.50;;;2.89;78.21;101288.94;5055169;28;20316;-71
2023/03/04 21:56:20;;;;;;;12.77;4.13;;;3.90;99.50;;;2.95;78.33;101293.84;5055203;28;20190;-71
2023/03/04 21:58:52;;;;;;;12.20;4.57;;;3.90;99.20;;;2.93;78.44;101288.66;5054813;28;20642;-71
2023/03/04 22:01:25;;;;;;;12.77;4.03;;;3.90;99.30;;;2.90;78.31;101290.66;5054781;28;20561;-71
2023/03/04 22:03:57;;;;;;;14.73;4.07;;;3.90;99.50;;;2.78;78.81;101286.13;5054873;28;20234;-71
2023/03/04 22:06:32;;;;;;;14.87;4.03;;;3.80;99.40;;;2.74;79.20;101289.94;5055019;28;20216;-71
2023/03/04 22:09:05;;;;;;;12.30;4.23;;;3.80;99.60;;;2.70;79.47;101288.44;5054949;28;20190;-71
2023/03/04 22:11:37;;;;;;;17.53;4.43;;;3.70;99.80;;;2.73;79.80;101289.09;5054579;28;20631;-71
2023/03/04 22:14:12;;;;;;;12.63;4.03;;;3.70;99.90;;;2.75;80.17;101292.47;5054359;28;20714;-71
2023/03/04 22:16:44;;;;;;;10.83;3.93;;;3.70;99.90;;;2.78;79.68;101280.84;5054857;28;20632;-71
2023/03/04 22:19:29;;;;;;;16.27;4.40;;;3.80;99.90;;;2.82;79.96;101277.06;5054423;28;20639;-71
2023/03/04 22:22:02;;;;;;;13.60;4.03;;;3.80;99.90;;;2.71;80.35;101274.25;5055214;28;20186;-71
2023/03/04 22:24:34;;;;;;;12.30;4.07;;;3.70;99.90;;;2.81;79.55;101278.03;5054474;28;20226;-71
2023/03/04 22:27:06;;;;;;;14.43;4.37;;;3.70;99.90;;;2.68;80.53;101277.09;5054563;28;20210;-71
2023/03/04 22:29:38;;;;;;;16.33;3.73;;;3.70;99.90;;;2.66;80.97;101274.56;5054585;28;20194;-71
2023/03/04 22:32:10;;;;;;;10.73;3.50;;;3.60;99.90;;;2.67;80.70;101272.78;5054536;28;20570;-71
2023/03/04 22:34:43;;;;;;;12.53;3.73;;;3.60;99.90;;;2.68;80.88;101277.09;5054349;28;20238;-71
2023/03/04 22:37:16;;;;;;;14.13;4.10;;;3.60;99.90;;;2.54;82.84;101270.03;5054123;28;20650;-71
2023/03/04 22:39:47;;;;;;;17.87;4.23;;;3.60;99.90;;;2.51;82.50;101278.16;5054358;28;20248;-71
2023/03/04 22:42:19;;;;;;;11.70;3.40;;;3.50;99.90;;;2.53;82.95;101261.25;5054311;28;20198;-71
2023/03/04 22:44:54;;;;;;;13.50;4.60;;;3.50;99.90;;;2.52;83.51;101267.50;5053772;28;20227;-71
2023/03/04 22:47:25;;;;;;;11.73;3.67;;;3.50;99.90;;;2.42;83.62;101255.81;5053920;28;20641;-71
2023/03/04 22:49:57;;;;;;;14.23;3.87;;;3.40;99.90;;;2.36;83.23;101248.25;5053642;28;20194;-71
2023/03/04 22:52:31;;;;;;;12.03;3.87;;;3.40;99.90;;;2.40;83.98;101244.47;5053831;28;20190;-71
2023/03/04 22:55:03;;;;;;;14.47;4.23;;;3.40;99.90;;;2.36;83.30;101242.97;5054869;28;20197;-71
2023/03/04 22:57:34;;;;;;;18.67;4.43;;;3.40;99.90;;;2.31;83.61;101247.69;5053693;28;20643;-71
2023/03/04 23:00:07;;;;;;;11.80;3.77;;;3.30;99.90;;;2.38;83.46;101256.94;5053662;28;20693;-71
2023/03/04 23:02:39;;;;;;;13.83;4.43;;;3.40;99.90;;;2.39;83.66;101248.06;5053922;28;20194;-71
2023/03/04 23:05:13;;;;;;;11.67;4.30;;;3.40;99.90;;;2.32;84.21;101249.41;5054672;28;20309;-71
2023/03/04 23:07:47;;;;;;;13.13;4.20;;;3.30;99.90;;;2.39;83.32;101248.06;5053856;28;20186;-71
2023/03/04 23:10:23;;;;;;;16.40;3.60;;;3.40;99.90;;;2.38;83.36;101250.81;5053822;28;20187;-71
2023/03/04 23:12:56;;;;;;;15.03;4.57;;;3.40;99.90;;;2.42;83.13;101252.31;5053730;28;20229;-71
2023/03/04 23:15:27;;;;;;;13.03;3.87;;;3.40;99.90;;;2.40;83.70;101247.09;5053388;28;20218;-71
2023/03/04 23:17:59;;;;;;;15.83;4.10;;;3.40;99.90;;;2.40;83.45;101247.09;5054136;28;20206;-71
2023/03/04 23:20:31;;;;;;;11.00;4.23;;;3.40;99.90;;;2.42;83.36;101247.88;5053698;28;20195;-71
2023/03/04 23:23:04;;;;;;;9.80;3.50;;;3.40;99.90;;;2.42;83.12;101253.16;5053621;28;20226;-71
2023/03/04 23:25:38;;;;;;;9.83;3.73;;;3.40;99.90;;;2.44;82.93;101245.97;5053565;28;20210;-71
2023/03/04 23:28:10;;;;;;;12.07;3.33;;;3.40;99.90;;;2.40;83.24;101252.41;5053663;28;20358;-71
2023/03/04 23:30:42;;;;;;;12.43;3.70;;;3.40;99.90;;;2.36;83.08;101242.13;5053563;28;20190;-71
2023/03/04 23:33:14;;;;;;;11.03;3.73;;;3.30;99.90;;;2.30;84.03;101246.00;5053448;28;20312;-71
2023/03/04 23:35:45;;;;;;;7.70;3.57;;;3.30;99.90;;;2.32;83.42;101244.13;5053154;28;20590;-71
2023/03/04 23:38:18;;;;;;;10.43;3.37;;;3.30;99.90;;;2.30;83.25;101238.06;5053212;28;20194;-71
2023/03/04 23:40:50;;;;;;;9.63;3.63;;;3.30;99.90;;;2.37;83.54;101243.81;5053443;28;20204;-71
2023/03/04 23:43:22;;;;;;;10.60;4.03;;;3.40;99.90;;;2.34;83.29;101239.56;5053326;28;20287;-71
2023/03/04 23:45:54;;;;;;;15.63;3.93;;;3.30;99.90;;;2.36;83.07;101227.09;5053293;28;20237;-71
2023/03/04 23:48:26;;;;;;;8.33;3.60;;;3.30;99.90;;;2.32;82.68;101228.25;5053369;28;20194;-71
2023/03/04 23:51:00;;;;;;;9.77;3.60;;;3.30;99.90;;;2.31;83.14;101233.63;5053342;28;20213;-71
2023/03/04 23:53:37;;;;;;;9.07;3.87;;;3.30;99.90;;;2.35;83.04;101236.00;5053254;28;20233;-71
2023/03/04 23:56:13;;;;;;;14.30;4.27;;;3.30;99.90;;;2.34;83.45;101234.28;5053294;28;20187;-71
2023/03/04 23:58:45;;;;;;;10.67;3.47;;;3.30;99.90;;;2.30;83.59;101231.94;5052969;28;20606;-71
